Regional Weather

 

KCRX - Corinth, Mississippi, USA
Distance from station: SW 29mi, 47km
Updated: Mon, 16-Sep-2019 1:35am CDT
Mist, Clear
Mist, Clear
 Wind from calm
Wind: Calm
Temperature: 72°F , 22°C
Dew Point: 70°F , 21°C
Humidity: 94%
Barometer: 30.07 inHg , 1018.3 hPa
Summary: Mist
Clouds: Clear
Visibility: 2 miles , 3 km
2019/09/16 06:35 KCRX 160635Z AUTO 00000KT 2SM BR CLR 22/21 A3007 RMK AO2
KMKL - Jackson, Tennessee, USA
Distance from station: NW 46mi, 73km
Updated: Mon, 16-Sep-2019 12:53am CDT
Mist, Clear
Mist, Clear
 Wind from calm
Wind: Calm
Temperature: 72°F , 22°C
Dew Point: 70°F , 21°C
Humidity: 94%
Barometer: 30.09 inHg , 1019 hPa
Summary: Mist
Clouds: Clear
Visibility: 3 miles , 5 km
2019/09/16 05:53 KMKL 160553Z AUTO 00000KT 3SM BR CLR 22/21 A3009 RMK AO2 SLP183 T02170211 10289 20217 403610189 50002
 
KMSL - Muscle Shoal, Alabama, USA
Distance from station: SE 49mi, 79km
Updated: Mon, 16-Sep-2019 12:53am CDT
Clear
Clear
 Wind from calm
Wind: Calm
Temperature: 72°F , 22°C
Dew Point: 68°F , 20°C
Humidity: 88%
Barometer: 30.08 inHg , 1018.6 hPa
Clouds: Clear
Visibility: 10 miles , 16 km
2019/09/16 05:53 KMSL 160553Z AUTO 00000KT 10SM CLR 22/20 A3008 RMK AO2 SLP179 T02220200 10306 20222 403610211 50001
KTUP - Tupelo, Mississippi, USA
Distance from station: SSW 72mi, 117km
Updated: Mon, 16-Sep-2019 12:53am CDT
Clear
Clear
 Wind from calm
Wind: Calm
Temperature: 77°F , 25°C
Dew Point: 72°F , 22°C
Humidity: 83%
Barometer: 30.06 inHg , 1017.9 hPa
Clouds: Clear
Visibility: 10 miles , 16 km
2019/09/16 05:53 KTUP 160553Z AUTO 00000KT 10SM CLR 25/22 A3006 RMK AO2 SLP174 T02500217 10311 20250 403500222 50000 $
 
KHSV - Huntsville, Alabama, USA
Distance from station: ESE 92mi, 148km
Updated: Mon, 16-Sep-2019 12:53am CDT
Clear
Clear
 Wind from calm
Wind: Calm
Temperature: 72°F , 22°C
Dew Point: 68°F , 20°C
Humidity: 88%
Barometer: 30.08 inHg , 1018.6 hPa
Clouds: Clear
Visibility: 10 miles , 16 km
2019/09/16 05:53 KHSV 160553Z AUTO 00000KT 10SM CLR 22/20 A3008 RMK AO2 SLP178 T02170200 10306 20211 403560211 50002
KBNA - Nashville, TN, USA
Distance from station: NE 97mi, 157km
Updated: Mon, 16-Sep-2019 12:53am CDT
Clear
Clear
 Wind from calm
Wind: Calm
Temperature: 79°F , 26°C
Dew Point: 66°F , 19°C
Humidity: 65%
Barometer: 30.09 inHg , 1019 hPa
Clouds: Clear
Visibility: 10 miles , 16 km
2019/09/16 05:53 KBNA 160553Z 00000KT 10SM CLR 26/19 A3009 RMK AO2 SLP181 T02560194 10317 20244 403610183 55001
 
KMEM - Memphis, Tennessee, USA
Distance from station: W 99mi, 159km
Updated: Mon, 16-Sep-2019 12:54am CDT
Clear
Clear
 Wind from calm
Wind: Calm
Temperature: 79°F , 26°C
Dew Point: 70°F , 21°C
Humidity: 74%
Barometer: 30.07 inHg , 1018.3 hPa
Clouds: Clear
Visibility: 10 miles , 16 km
2019/09/16 05:54 KMEM 160554Z 00000KT 10SM CLR 26/21 A3007 RMK AO2 SLP177 T02560211 10333 20256 403610239 58000 $
KCKV - Clarksville, TN, USA
Distance from station: NNE 99mi, 159km
Updated: Mon, 16-Sep-2019 12:52am CDT
Clear
Clear
 Wind from calm
Wind: Calm
Temperature: 70°F , 21°C
Dew Point: 68°F , 20°C
Humidity: 94%
Barometer: 30.09 inHg , 1019 hPa
Clouds: Clear
Visibility: 10 miles , 16 km
2019/09/16 05:52 KCKV 160552Z AUTO 00000KT 10SM CLR 21/20 A3009 RMK AO2 SLP182 T02110200 10317 20200 403500167 51002
 
KCHA - Chattanooga, TN, USA
Distance from station: E 165mi, 265km
Updated: Mon, 16-Sep-2019 12:53am CDT
Clear
Clear
 Wind from calm
Wind: Calm
Temperature: 70°F , 21°C
Dew Point: 64°F , 18°C
Humidity: 83%
Barometer: 30.11 inHg , 1019.6 hPa
Clouds: Clear
Visibility: 10 miles , 16 km
2019/09/16 05:53 KCHA 160553Z AUTO 00000KT 10SM CLR 21/18 A3011 RMK AO2 SLP186 T02060178 10328 20206 51006 $
KTYS - Knoxville, TN, USA
Distance from station: E 234mi, 377km
Updated: Mon, 16-Sep-2019 12:53am CDT
Clear
Clear
 Wind from NE
Wind: NE 3 mph , 6 km/h
Temperature: 66°F , 19°C
Dew Point: 57°F , 14°C
Humidity: 73%
Barometer: 30.10 inHg , 1019.3 hPa
Clouds: Clear
Visibility: 10 miles , 16 km
2019/09/16 05:53 KTYS 160553Z 04003KT 10SM CLR 19/14 A3010 RMK AO2 SLP180 T01940144 10294 20194 58002

Refresh Page for latest data.